sensor_id;sensor_type;location;lat;lon;timestamp;temperature;humidity
19755;DHT22;10036;47.812;9.274;2023-03-03T00:01:12;0.60;99.90
19755;DHT22;10036;47.812;9.274;2023-03-03T00:03:39;0.60;99.90
19755;DHT22;10036;47.812;9.274;2023-03-03T00:06:09;0.50;99.90
19755;DHT22;10036;47.812;9.274;2023-03-03T00:08:36;0.40;99.90
19755;DHT22;10036;47.812;9.274;2023-03-03T00:11:03;0.40;99.90
19755;DHT22;10036;47.812;9.274;2023-03-03T00:13:32;0.50;99.90
19755;DHT22;10036;47.812;9.274;2023-03-03T00:16:14;0.60;99.90
19755;DHT22;10036;47.812;9.274;2023-03-03T00:18:42;0.50;99.90
19755;DHT22;10036;47.812;9.274;2023-03-03T00:21:23;0.50;99.90
19755;DHT22;10036;47.812;9.274;2023-03-03T00:23:54;0.50;99.90
19755;DHT22;10036;47.812;9.274;2023-03-03T00:26:23;0.60;99.90
19755;DHT22;10036;47.812;9.274;2023-03-03T00:28:52;0.70;99.90
19755;DHT22;10036;47.812;9.274;2023-03-03T00:31:25;0.80;99.90
19755;DHT22;10036;47.812;9.274;2023-03-03T00:33:56;0.80;99.90
19755;DHT22;10036;47.812;9.274;2023-03-03T00:36:29;0.80;99.90
19755;DHT22;10036;47.812;9.274;2023-03-03T00:39:16;0.90;99.90
19755;DHT22;10036;47.812;9.274;2023-03-03T00:41:43;0.70;99.90
19755;DHT22;10036;47.812;9.274;2023-03-03T00:44:31;0.60;99.90
19755;DHT22;10036;47.812;9.274;2023-03-03T00:47:15;0.50;99.90
19755;DHT22;10036;47.812;9.274;2023-03-03T00:49:44;0.50;99.90
19755;DHT22;10036;47.812;9.274;2023-03-03T00:52:13;0.50;99.90
19755;DHT22;10036;47.812;9.274;2023-03-03T00:54:41;0.70;99.90
19755;DHT22;10036;47.812;9.274;2023-03-03T00:57:09;0.70;99.90
19755;DHT22;10036;47.812;9.274;2023-03-03T00:59:37;0.80;99.90
19755;DHT22;10036;47.812;9.274;2023-03-03T01:02:06;0.80;99.90
19755;DHT22;10036;47.812;9.274;2023-03-03T01:04:33;0.90;99.90
19755;DHT22;10036;47.812;9.274;2023-03-03T01:07:00;0.80;99.90
19755;DHT22;10036;47.812;9.274;2023-03-03T01:09:27;0.80;99.90
19755;DHT22;10036;47.812;9.274;2023-03-03T01:11:54;0.80;99.90
19755;DHT22;10036;47.812;9.274;2023-03-03T01:14:21;0.90;99.90
19755;DHT22;10036;47.812;9.274;2023-03-03T01:16:48;0.80;99.90
19755;DHT22;10036;47.812;9.274;2023-03-03T01:19:16;0.70;99.90
19755;DHT22;10036;47.812;9.274;2023-03-03T01:21:43;0.70;99.90
19755;DHT22;10036;47.812;9.274;2023-03-03T01:24:09;0.80;99.90
19755;DHT22;10036;47.812;9.274;2023-03-03T01:26:36;0.80;99.90
19755;DHT22;10036;47.812;9.274;2023-03-03T01:29:03;0.80;99.90
19755;DHT22;10036;47.812;9.274;2023-03-03T01:31:30;0.80;99.90
19755;DHT22;10036;47.812;9.274;2023-03-03T01:33:57;0.70;99.90
19755;DHT22;10036;47.812;9.274;2023-03-03T01:36:26;0.60;99.90
19755;DHT22;10036;47.812;9.274;2023-03-03T01:38:53;0.60;99.90
19755;DHT22;10036;47.812;9.274;2023-03-03T01:41:20;0.70;99.90
19755;DHT22;10036;47.812;9.274;2023-03-03T01:43:49;0.70;99.90
19755;DHT22;10036;47.812;9.274;2023-03-03T01:46:32;0.60;99.90
19755;DHT22;10036;47.812;9.274;2023-03-03T01:49:02;0.70;99.90
19755;DHT22;10036;47.812;9.274;2023-03-03T01:51:36;0.80;99.90
19755;DHT22;10036;47.812;9.274;2023-03-03T01:54:08;0.80;99.90
19755;DHT22;10036;47.812;9.274;2023-03-03T01:56:37;0.80;99.90
19755;DHT22;10036;47.812;9.274;2023-03-03T01:59:07;0.80;99.90
19755;DHT22;10036;47.812;9.274;2023-03-03T02:01:35;0.80;99.90
19755;DHT22;10036;47.812;9.274;2023-03-03T02:04:02;0.90;99.90
19755;DHT22;10036;47.812;9.274;2023-03-03T02:06:34;0.80;99.90
19755;DHT22;10036;47.812;9.274;2023-03-03T02:09:06;0.90;99.90
19755;DHT22;10036;47.812;9.274;2023-03-03T02:11:37;0.90;99.90
19755;DHT22;10036;47.812;9.274;2023-03-03T02:14:06;0.80;99.90
19755;DHT22;10036;47.812;9.274;2023-03-03T02:16:32;0.70;99.90
19755;DHT22;10036;47.812;9.274;2023-03-03T02:18:59;0.70;99.90
19755;DHT22;10036;47.812;9.274;2023-03-03T02:21:26;0.60;99.90
19755;DHT22;10036;47.812;9.274;2023-03-03T02:23:59;0.50;99.90
19755;DHT22;10036;47.812;9.274;2023-03-03T02:26:31;0.50;99.90
19755;DHT22;10036;47.812;9.274;2023-03-03T02:28:59;0.60;99.90
19755;DHT22;10036;47.812;9.274;2023-03-03T02:31:28;0.70;99.90
19755;DHT22;10036;47.812;9.274;2023-03-03T02:33:55;0.60;99.90
19755;DHT22;10036;47.812;9.274;2023-03-03T02:36:25;0.70;99.90
19755;DHT22;10036;47.812;9.274;2023-03-03T02:38:59;0.70;99.90
19755;DHT22;10036;47.812;9.274;2023-03-03T02:41:33;0.70;99.90
19755;DHT22;10036;47.812;9.274;2023-03-03T02:44:02;0.80;99.90
19755;DHT22;10036;47.812;9.274;2023-03-03T02:46:32;0.80;99.90
19755;DHT22;10036;47.812;9.274;2023-03-03T02:48:59;0.80;99.90
19755;DHT22;10036;47.812;9.274;2023-03-03T02:51:26;0.80;99.90
19755;DHT22;10036;47.812;9.274;2023-03-03T02:53:53;0.70;99.90
19755;DHT22;10036;47.812;9.274;2023-03-03T02:56:20;0.70;99.90
19755;DHT22;10036;47.812;9.274;2023-03-03T02:58:48;0.70;99.90
19755;DHT22;10036;47.812;9.274;2023-03-03T03:01:15;0.80;99.90
19755;DHT22;10036;47.812;9.274;2023-03-03T03:03:42;0.70;99.90
19755;DHT22;10036;47.812;9.274;2023-03-03T03:06:09;0.60;99.90
19755;DHT22;10036;47.812;9.274;2023-03-03T03:08:36;0.60;99.90
19755;DHT22;10036;47.812;9.274;2023-03-03T03:11:04;0.60;99.90
19755;DHT22;10036;47.812;9.274;2023-03-03T03:13:31;0.60;99.90
19755;DHT22;10036;47.812;9.274;2023-03-03T03:16:00;0.70;99.90
19755;DHT22;10036;47.812;9.274;2023-03-03T03:18:27;0.70;99.90
19755;DHT22;10036;47.812;9.274;2023-03-03T03:20:54;0.70;99.90
19755;DHT22;10036;47.812;9.274;2023-03-03T03:23:21;0.70;99.90
19755;DHT22;10036;47.812;9.274;2023-03-03T03:25:48;0.80;99.90
19755;DHT22;10036;47.812;9.274;2023-03-03T03:28:16;0.70;99.90
19755;DHT22;10036;47.812;9.274;2023-03-03T03:30:43;0.60;99.90
19755;DHT22;10036;47.812;9.274;2023-03-03T03:33:11;0.60;99.90
19755;DHT22;10036;47.812;9.274;2023-03-03T03:35:38;0.70;99.90
19755;DHT22;10036;47.812;9.274;2023-03-03T03:38:10;0.70;99.90
19755;DHT22;10036;47.812;9.274;2023-03-03T03:40:37;0.70;99.90
19755;DHT22;10036;47.812;9.274;2023-03-03T03:43:04;0.70;99.90
19755;DHT22;10036;47.812;9.274;2023-03-03T03:45:31;0.70;99.90
19755;DHT22;10036;47.812;9.274;2023-03-03T03:47:58;0.70;99.90
19755;DHT22;10036;47.812;9.274;2023-03-03T03:50:26;0.70;99.90
19755;DHT22;10036;47.812;9.274;2023-03-03T03:52:53;0.70;99.90
19755;DHT22;10036;47.812;9.274;2023-03-03T03:55:20;0.70;99.90
19755;DHT22;10036;47.812;9.274;2023-03-03T03:57:48;0.80;99.90
19755;DHT22;10036;47.812;9.274;2023-03-03T04:00:15;0.80;99.90
19755;DHT22;10036;47.812;9.274;2023-03-03T04:02:42;0.80;99.90
19755;DHT22;10036;47.812;9.274;2023-03-03T04:05:09;0.80;99.90
19755;DHT22;10036;47.812;9.274;2023-03-03T04:07:37;0.80;99.90
19755;DHT22;10036;47.812;9.274;2023-03-03T04:10:05;0.90;99.90
19755;DHT22;10036;47.812;9.274;2023-03-03T04:12:32;0.80;99.90
19755;DHT22;10036;47.812;9.274;2023-03-03T04:15:03;0.80;99.90
19755;DHT22;10036;47.812;9.274;2023-03-03T04:17:30;0.80;99.90
19755;DHT22;10036;47.812;9.274;2023-03-03T04:19:57;0.90;99.90
19755;DHT22;10036;47.812;9.274;2023-03-03T04:22:24;0.90;99.90
19755;DHT22;10036;47.812;9.274;2023-03-03T04:24:53;0.90;99.90
19755;DHT22;10036;47.812;9.274;2023-03-03T04:27:20;0.90;99.90
19755;DHT22;10036;47.812;9.274;2023-03-03T04:29:47;0.90;99.90
19755;DHT22;10036;47.812;9.274;2023-03-03T04:32:13;0.90;99.90
19755;DHT22;10036;47.812;9.274;2023-03-03T04:34:40;0.90;99.90
19755;DHT22;10036;47.812;9.274;2023-03-03T04:37:07;0.90;99.90
19755;DHT22;10036;47.812;9.274;2023-03-03T04:39:34;0.90;99.90
19755;DHT22;10036;47.812;9.274;2023-03-03T04:42:03;0.90;99.90
19755;DHT22;10036;47.812;9.274;2023-03-03T04:44:31;0.90;99.90
19755;DHT22;10036;47.812;9.274;2023-03-03T04:46:57;0.90;99.90
19755;DHT22;10036;47.812;9.274;2023-03-03T04:49:24;0.90;99.90
19755;DHT22;10036;47.812;9.274;2023-03-03T04:51:51;0.90;99.90
19755;DHT22;10036;47.812;9.274;2023-03-03T04:54:18;0.90;99.90
19755;DHT22;10036;47.812;9.274;2023-03-03T04:56:45;0.90;99.90
19755;DHT22;10036;47.812;9.274;2023-03-03T04:59:13;0.90;99.90
19755;DHT22;10036;47.812;9.274;2023-03-03T05:01:40;1.00;99.90
19755;DHT22;10036;47.812;9.274;2023-03-03T05:04:07;1.00;99.90
19755;DHT22;10036;47.812;9.274;2023-03-03T05:06:34;1.10;99.90
19755;DHT22;10036;47.812;9.274;2023-03-03T05:09:01;1.10;99.90
19755;DHT22;10036;47.812;9.274;2023-03-03T05:11:28;1.10;99.90
19755;DHT22;10036;47.812;9.274;2023-03-03T05:13:57;1.10;99.90
19755;DHT22;10036;47.812;9.274;2023-03-03T05:16:25;1.10;99.90
19755;DHT22;10036;47.812;9.274;2023-03-03T05:18:52;1.10;99.90
19755;DHT22;10036;47.812;9.274;2023-03-03T05:21:18;1.10;99.90
19755;DHT22;10036;47.812;9.274;2023-03-03T05:23:45;1.10;99.90
19755;DHT22;10036;47.812;9.274;2023-03-03T05:26:12;1.10;99.90
19755;DHT22;10036;47.812;9.274;2023-03-03T05:28:39;1.10;99.90
19755;DHT22;10036;47.812;9.274;2023-03-03T05:31:06;1.10;99.90
19755;DHT22;10036;47.812;9.274;2023-03-03T05:33:34;1.10;99.90
19755;DHT22;10036;47.812;9.274;2023-03-03T05:36:01;1.10;99.90
19755;DHT22;10036;47.812;9.274;2023-03-03T05:38:28;1.10;99.90
19755;DHT22;10036;47.812;9.274;2023-03-03T05:40:55;1.20;99.90
19755;DHT22;10036;47.812;9.274;2023-03-03T05:43:22;1.20;99.90
19755;DHT22;10036;47.812;9.274;2023-03-03T05:45:53;1.30;99.90
19755;DHT22;10036;47.812;9.274;2023-03-03T05:48:20;1.20;99.90
19755;DHT22;10036;47.812;9.274;2023-03-03T05:50:49;1.20;99.90
19755;DHT22;10036;47.812;9.274;2023-03-03T05:53:16;1.20;99.90
19755;DHT22;10036;47.812;9.274;2023-03-03T05:55:43;1.20;99.90
19755;DHT22;10036;47.812;9.274;2023-03-03T05:58:10;1.20;99.90
19755;DHT22;10036;47.812;9.274;2023-03-03T06:00:37;1.20;99.90
19755;DHT22;10036;47.812;9.274;2023-03-03T06:03:04;1.30;99.90
19755;DHT22;10036;47.812;9.274;2023-03-03T06:05:31;1.40;99.90
19755;DHT22;10036;47.812;9.274;2023-03-03T06:07:59;1.30;99.90
19755;DHT22;10036;47.812;9.274;2023-03-03T06:10:26;1.30;99.90
19755;DHT22;10036;47.812;9.274;2023-03-03T06:12:53;1.30;99.90
19755;DHT22;10036;47.812;9.274;2023-03-03T06:15:20;1.30;99.90
19755;DHT22;10036;47.812;9.274;2023-03-03T06:17:47;1.20;99.90
19755;DHT22;10036;47.812;9.274;2023-03-03T06:20:14;1.20;99.90
19755;DHT22;10036;47.812;9.274;2023-03-03T06:22:41;1.20;99.90
19755;DHT22;10036;47.812;9.274;2023-03-03T06:25:10;1.20;99.90
19755;DHT22;10036;47.812;9.274;2023-03-03T06:27:37;1.20;99.90
19755;DHT22;10036;47.812;9.274;2023-03-03T06:30:04;1.30;99.90
19755;DHT22;10036;47.812;9.274;2023-03-03T06:32:32;1.20;99.90
19755;DHT22;10036;47.812;9.274;2023-03-03T06:34:58;1.20;99.90
19755;DHT22;10036;47.812;9.274;2023-03-03T06:37:25;1.30;99.90
19755;DHT22;10036;47.812;9.274;2023-03-03T06:39:52;1.30;99.90
19755;DHT22;10036;47.812;9.274;2023-03-03T06:42:20;1.30;99.90
19755;DHT22;10036;47.812;9.274;2023-03-03T06:44:49;1.30;99.90
19755;DHT22;10036;47.812;9.274;2023-03-03T06:47:16;1.40;99.90
19755;DHT22;10036;47.812;9.274;2023-03-03T06:49:43;1.40;99.90
19755;DHT22;10036;47.812;9.274;2023-03-03T06:52:12;1.40;99.90
19755;DHT22;10036;47.812;9.274;2023-03-03T06:54:39;1.40;99.90
19755;DHT22;10036;47.812;9.274;2023-03-03T06:57:15;1.40;99.90
19755;DHT22;10036;47.812;9.274;2023-03-03T06:59:50;1.50;99.90
19755;DHT22;10036;47.812;9.274;2023-03-03T07:02:18;1.50;99.90
19755;DHT22;10036;47.812;9.274;2023-03-03T07:04:46;1.60;99.90
19755;DHT22;10036;47.812;9.274;2023-03-03T07:07:17;1.60;99.90
19755;DHT22;10036;47.812;9.274;2023-03-03T07:09:47;1.60;99.90
19755;DHT22;10036;47.812;9.274;2023-03-03T07:12:17;1.60;99.90
19755;DHT22;10036;47.812;9.274;2023-03-03T07:14:47;1.70;99.90
19755;DHT22;10036;47.812;9.274;2023-03-03T07:17:18;1.70;99.90
19755;DHT22;10036;47.812;9.274;2023-03-03T07:19:46;1.70;99.90
19755;DHT22;10036;47.812;9.274;2023-03-03T07:22:15;1.80;99.90
19755;DHT22;10036;47.812;9.274;2023-03-03T07:24:44;1.80;99.90
19755;DHT22;10036;47.812;9.274;2023-03-03T07:27:13;1.80;99.90
19755;DHT22;10036;47.812;9.274;2023-03-03T07:29:47;1.80;99.90
19755;DHT22;10036;47.812;9.274;2023-03-03T07:32:24;1.80;99.90
19755;DHT22;10036;47.812;9.274;2023-03-03T07:34:54;1.90;99.90
19755;DHT22;10036;47.812;9.274;2023-03-03T07:37:28;1.90;99.90
19755;DHT22;10036;47.812;9.274;2023-03-03T07:39:56;1.90;99.90
19755;DHT22;10036;47.812;9.274;2023-03-03T07:42:26;1.90;99.90
19755;DHT22;10036;47.812;9.274;2023-03-03T07:44:57;1.90;99.90
19755;DHT22;10036;47.812;9.274;2023-03-03T07:47:25;1.90;99.90
19755;DHT22;10036;47.812;9.274;2023-03-03T07:49:54;1.90;99.90
19755;DHT22;10036;47.812;9.274;2023-03-03T07:52:27;2.00;99.90
19755;DHT22;10036;47.812;9.274;2023-03-03T07:54:56;2.00;99.90
19755;DHT22;10036;47.812;9.274;2023-03-03T07:57:26;2.10;99.90
19755;DHT22;10036;47.812;9.274;2023-03-03T07:59:59;2.10;99.90
19755;DHT22;10036;47.812;9.274;2023-03-03T08:02:39;2.20;99.90
19755;DHT22;10036;47.812;9.274;2023-03-03T08:05:34;2.20;99.90
19755;DHT22;10036;47.812;9.274;2023-03-03T08:11:08;2.30;99.90
19755;DHT22;10036;47.812;9.274;2023-03-03T08:13:37;2.40;99.90
19755;DHT22;10036;47.812;9.274;2023-03-03T08:16:29;2.40;99.90
19755;DHT22;10036;47.812;9.274;2023-03-03T08:19:04;2.50;99.90
19755;DHT22;10036;47.812;9.274;2023-03-03T08:21:32;2.40;99.90
19755;DHT22;10036;47.812;9.274;2023-03-03T08:24:00;2.40;99.90
19755;DHT22;10036;47.812;9.274;2023-03-03T08:26:27;2.50;99.90
19755;DHT22;10036;47.812;9.274;2023-03-03T08:28:54;2.50;99.90
19755;DHT22;10036;47.812;9.274;2023-03-03T08:31:21;2.50;99.90
19755;DHT22;10036;47.812;9.274;2023-03-03T08:33:48;2.50;99.90
19755;DHT22;10036;47.812;9.274;2023-03-03T08:36:16;2.60;99.90
19755;DHT22;10036;47.812;9.274;2023-03-03T08:38:43;2.70;99.90
19755;DHT22;10036;47.812;9.274;2023-03-03T08:41:10;2.70;99.90
19755;DHT22;10036;47.812;9.274;2023-03-03T08:43:37;2.80;99.90
19755;DHT22;10036;47.812;9.274;2023-03-03T08:46:04;2.80;99.90
19755;DHT22;10036;47.812;9.274;2023-03-03T08:48:32;2.90;99.90
19755;DHT22;10036;47.812;9.274;2023-03-03T08:51:00;3.00;99.90
19755;DHT22;10036;47.812;9.274;2023-03-03T08:53:28;3.10;99.90
19755;DHT22;10036;47.812;9.274;2023-03-03T08:55:58;3.20;99.90
19755;DHT22;10036;47.812;9.274;2023-03-03T08:58:25;3.30;99.90
19755;DHT22;10036;47.812;9.274;2023-03-03T09:00:51;3.40;99.90
19755;DHT22;10036;47.812;9.274;2023-03-03T09:03:18;3.40;99.90
19755;DHT22;10036;47.812;9.274;2023-03-03T09:05:45;3.50;99.90
19755;DHT22;10036;47.812;9.274;2023-03-03T09:08:12;3.60;99.90
19755;DHT22;10036;47.812;9.274;2023-03-03T09:10:40;3.80;99.90
19755;DHT22;10036;47.812;9.274;2023-03-03T09:13:13;3.70;99.90
19755;DHT22;10036;47.812;9.274;2023-03-03T09:15:40;3.70;99.90
19755;DHT22;10036;47.812;9.274;2023-03-03T09:18:14;3.80;99.90
19755;DHT22;10036;47.812;9.274;2023-03-03T09:20:42;3.90;99.90
19755;DHT22;10036;47.812;9.274;2023-03-03T09:23:30;4.00;99.90
19755;DHT22;10036;47.812;9.274;2023-03-03T09:26:24;4.00;99.90
19755;DHT22;10036;47.812;9.274;2023-03-03T09:28:54;4.10;99.90
19755;DHT22;10036;47.812;9.274;2023-03-03T09:31:24;4.20;99.90
19755;DHT22;10036;47.812;9.274;2023-03-03T09:33:52;4.20;99.90
19755;DHT22;10036;47.812;9.274;2023-03-03T09:36:25;4.30;99.90
19755;DHT22;10036;47.812;9.274;2023-03-03T09:38:53;4.40;99.90
19755;DHT22;10036;47.812;9.274;2023-03-03T09:45:16;4.50;99.90
19755;DHT22;10036;47.812;9.274;2023-03-03T09:48:00;4.50;99.90
19755;DHT22;10036;47.812;9.274;2023-03-03T09:50:33;4.30;99.90
19755;DHT22;10036;47.812;9.274;2023-03-03T09:53:11;4.30;99.90
19755;DHT22;10036;47.812;9.274;2023-03-03T09:55:48;4.40;99.90
19755;DHT22;10036;47.812;9.274;2023-03-03T09:58:35;4.30;99.90
19755;DHT22;10036;47.812;9.274;2023-03-03T10:01:35;4.40;99.90
19755;DHT22;10036;47.812;9.274;2023-03-03T10:04:18;4.60;99.90
19755;DHT22;10036;47.812;9.274;2023-03-03T10:06:52;4.70;99.90
19755;DHT22;10036;47.812;9.274;2023-03-03T10:09:40;4.60;99.90
19755;DHT22;10036;47.812;9.274;2023-03-03T10:12:16;4.60;99.90
19755;DHT22;10036;47.812;9.274;2023-03-03T10:15:00;4.60;99.90
19755;DHT22;10036;47.812;9.274;2023-03-03T10:17:43;4.80;99.90
19755;DHT22;10036;47.812;9.274;2023-03-03T10:20:34;4.80;99.90
19755;DHT22;10036;47.812;9.274;2023-03-03T10:23:07;4.80;99.90
19755;DHT22;10036;47.812;9.274;2023-03-03T10:25:40;4.80;99.90
19755;DHT22;10036;47.812;9.274;2023-03-03T10:28:27;4.70;99.90
19755;DHT22;10036;47.812;9.274;2023-03-03T10:31:01;4.90;99.90
19755;DHT22;10036;47.812;9.274;2023-03-03T10:33:40;4.90;99.90
19755;DHT22;10036;47.812;9.274;2023-03-03T10:36:24;5.00;99.90
19755;DHT22;10036;47.812;9.274;2023-03-03T10:39:02;5.10;99.90
19755;DHT22;10036;47.812;9.274;2023-03-03T10:41:56;5.30;99.90
19755;DHT22;10036;47.812;9.274;2023-03-03T10:44:38;5.40;99.90
19755;DHT22;10036;47.812;9.274;2023-03-03T10:47:22;5.40;99.90
19755;DHT22;10036;47.812;9.274;2023-03-03T10:50:02;5.40;99.90
19755;DHT22;10036;47.812;9.274;2023-03-03T10:52:37;5.50;99.90
19755;DHT22;10036;47.812;9.274;2023-03-03T10:55:18;5.50;99.90
19755;DHT22;10036;47.812;9.274;2023-03-03T10:57:59;5.60;99.90
19755;DHT22;10036;47.812;9.274;2023-03-03T11:00:33;5.70;99.90
19755;DHT22;10036;47.812;9.274;2023-03-03T11:03:34;5.70;99.90
19755;DHT22;10036;47.812;9.274;2023-03-03T11:06:10;5.60;99.90
19755;DHT22;10036;47.812;9.274;2023-03-03T11:08:43;5.80;99.90
19755;DHT22;10036;47.812;9.274;2023-03-03T11:11:16;5.90;99.90
19755;DHT22;10036;47.812;9.274;2023-03-03T11:13:47;5.90;99.90
19755;DHT22;10036;47.812;9.274;2023-03-03T11:16:27;5.80;99.90
19755;DHT22;10036;47.812;9.274;2023-03-03T11:19:19;5.80;99.90
19755;DHT22;10036;47.812;9.274;2023-03-03T11:21:55;5.90;99.90
19755;DHT22;10036;47.812;9.274;2023-03-03T11:24:41;5.90;99.90
19755;DHT22;10036;47.812;9.274;2023-03-03T11:27:29;5.90;99.90
19755;DHT22;10036;47.812;9.274;2023-03-03T11:30:14;6.00;99.90
19755;DHT22;10036;47.812;9.274;2023-03-03T11:32:45;5.90;99.90
19755;DHT22;10036;47.812;9.274;2023-03-03T11:35:21;6.00;99.90
19755;DHT22;10036;47.812;9.274;2023-03-03T11:37:56;6.00;99.90
19755;DHT22;10036;47.812;9.274;2023-03-03T11:40:27;6.00;99.90
19755;DHT22;10036;47.812;9.274;2023-03-03T11:43:02;6.10;99.90
19755;DHT22;10036;47.812;9.274;2023-03-03T11:45:36;6.10;99.90
19755;DHT22;10036;47.812;9.274;2023-03-03T11:48:12;6.10;99.90
19755;DHT22;10036;47.812;9.274;2023-03-03T11:50:44;6.10;99.90
19755;DHT22;10036;47.812;9.274;2023-03-03T11:53:24;6.10;99.90
19755;DHT22;10036;47.812;9.274;2023-03-03T11:55:56;6.20;99.90
19755;DHT22;10036;47.812;9.274;2023-03-03T11:58:27;6.20;99.90
19755;DHT22;10036;47.812;9.274;2023-03-03T12:00:58;6.20;99.90
19755;DHT22;10036;47.812;9.274;2023-03-03T12:03:30;6.20;99.90
19755;DHT22;10036;47.812;9.274;2023-03-03T12:06:16;6.20;99.90
19755;DHT22;10036;47.812;9.274;2023-03-03T12:09:13;6.30;99.90
19755;DHT22;10036;47.812;9.274;2023-03-03T12:11:47;6.40;99.90
19755;DHT22;10036;47.812;9.274;2023-03-03T12:14:26;6.50;99.90
19755;DHT22;10036;47.812;9.274;2023-03-03T12:16:58;6.50;99.90
19755;DHT22;10036;47.812;9.274;2023-03-03T12:19:32;6.50;99.90
19755;DHT22;10036;47.812;9.274;2023-03-03T12:22:30;6.50;99.90
19755;DHT22;10036;47.812;9.274;2023-03-03T12:25:13;6.60;99.90
19755;DHT22;10036;47.812;9.274;2023-03-03T12:27:48;6.60;99.90
19755;DHT22;10036;47.812;9.274;2023-03-03T12:33:21;6.80;99.90
19755;DHT22;10036;47.812;9.274;2023-03-03T12:36:00;6.80;99.90
19755;DHT22;10036;47.812;9.274;2023-03-03T12:38:39;7.00;99.90
19755;DHT22;10036;47.812;9.274;2023-03-03T12:41:16;7.20;99.90
19755;DHT22;10036;47.812;9.274;2023-03-03T12:43:55;7.00;99.90
19755;DHT22;10036;47.812;9.274;2023-03-03T12:46:28;6.80;99.90
19755;DHT22;10036;47.812;9.274;2023-03-03T12:48:59;6.80;99.90
19755;DHT22;10036;47.812;9.274;2023-03-03T12:51:36;6.90;99.90
19755;DHT22;10036;47.812;9.274;2023-03-03T12:54:16;7.10;99.90
19755;DHT22;10036;47.812;9.274;2023-03-03T12:56:52;7.20;99.90
19755;DHT22;10036;47.812;9.274;2023-03-03T12:59:24;7.40;99.90
19755;DHT22;10036;47.812;9.274;2023-03-03T13:02:19;7.50;99.90
19755;DHT22;10036;47.812;9.274;2023-03-03T13:04:56;7.50;99.90
19755;DHT22;10036;47.812;9.274;2023-03-03T13:07:32;7.40;99.90
19755;DHT22;10036;47.812;9.274;2023-03-03T13:10:11;7.60;99.90
19755;DHT22;10036;47.812;9.274;2023-03-03T13:12:45;7.60;99.90
19755;DHT22;10036;47.812;9.274;2023-03-03T13:15:20;7.60;99.90
19755;DHT22;10036;47.812;9.274;2023-03-03T13:17:56;7.60;99.90
19755;DHT22;10036;47.812;9.274;2023-03-03T13:20:33;7.70;99.90
19755;DHT22;10036;47.812;9.274;2023-03-03T13:23:06;7.80;99.90
19755;DHT22;10036;47.812;9.274;2023-03-03T13:25:47;7.90;99.90
19755;DHT22;10036;47.812;9.274;2023-03-03T13:28:27;7.80;99.90
19755;DHT22;10036;47.812;9.274;2023-03-03T13:31:02;7.90;99.90
19755;DHT22;10036;47.812;9.274;2023-03-03T13:33:32;7.90;99.90
19755;DHT22;10036;47.812;9.274;2023-03-03T13:36:02;8.00;99.90
19755;DHT22;10036;47.812;9.274;2023-03-03T13:38:34;8.00;99.90
19755;DHT22;10036;47.812;9.274;2023-03-03T13:41:06;8.00;99.90
19755;DHT22;10036;47.812;9.274;2023-03-03T13:43:42;8.00;99.90
19755;DHT22;10036;47.812;9.274;2023-03-03T13:46:15;8.10;99.90
19755;DHT22;10036;47.812;9.274;2023-03-03T13:48:58;8.30;99.90
19755;DHT22;10036;47.812;9.274;2023-03-03T13:51:36;8.40;99.90
19755;DHT22;10036;47.812;9.274;2023-03-03T13:54:13;8.60;99.90
19755;DHT22;10036;47.812;9.274;2023-03-03T13:59:34;8.60;99.90
19755;DHT22;10036;47.812;9.274;2023-03-03T14:02:19;8.60;99.90
19755;DHT22;10036;47.812;9.274;2023-03-03T14:04:52;8.30;99.90
19755;DHT22;10036;47.812;9.274;2023-03-03T14:07:24;8.10;99.90
19755;DHT22;10036;47.812;9.274;2023-03-03T14:10:02;8.00;99.90
19755;DHT22;10036;47.812;9.274;2023-03-03T14:12:38;8.20;99.90
19755;DHT22;10036;47.812;9.274;2023-03-03T14:15:15;8.30;99.90
19755;DHT22;10036;47.812;9.274;2023-03-03T14:18:02;8.30;99.90
19755;DHT22;10036;47.812;9.274;2023-03-03T14:20:33;8.50;99.90
19755;DHT22;10036;47.812;9.274;2023-03-03T14:23:02;8.80;99.90
19755;DHT22;10036;47.812;9.274;2023-03-03T14:25:51;8.90;99.90
19755;DHT22;10036;47.812;9.274;2023-03-03T14:28:20;9.10;99.90
19755;DHT22;10036;47.812;9.274;2023-03-03T14:30:49;9.10;99.90
19755;DHT22;10036;47.812;9.274;2023-03-03T14:33:21;9.20;99.90
19755;DHT22;10036;47.812;9.274;2023-03-03T14:35:59;9.10;99.90
19755;DHT22;10036;47.812;9.274;2023-03-03T14:38:37;9.30;99.90
19755;DHT22;10036;47.812;9.274;2023-03-03T14:41:13;9.20;99.90
19755;DHT22;10036;47.812;9.274;2023-03-03T14:43:42;9.20;99.90
19755;DHT22;10036;47.812;9.274;2023-03-03T14:46:34;9.20;99.90
19755;DHT22;10036;47.812;9.274;2023-03-03T14:49:03;9.10;99.90
19755;DHT22;10036;47.812;9.274;2023-03-03T14:51:38;8.90;99.90
19755;DHT22;10036;47.812;9.274;2023-03-03T14:54:10;8.80;99.90
19755;DHT22;10036;47.812;9.274;2023-03-03T14:56:55;8.80;99.90
19755;DHT22;10036;47.812;9.274;2023-03-03T14:59:24;8.80;99.90
19755;DHT22;10036;47.812;9.274;2023-03-03T15:01:57;8.80;99.90
19755;DHT22;10036;47.812;9.274;2023-03-03T15:04:27;8.80;99.90
19755;DHT22;10036;47.812;9.274;2023-03-03T15:06:56;8.70;99.90
19755;DHT22;10036;47.812;9.274;2023-03-03T15:09:31;8.50;99.90
19755;DHT22;10036;47.812;9.274;2023-03-03T15:12:16;8.50;99.90
19755;DHT22;10036;47.812;9.274;2023-03-03T15:14:47;8.40;99.90
19755;DHT22;10036;47.812;9.274;2023-03-03T15:17:34;8.30;99.90
19755;DHT22;10036;47.812;9.274;2023-03-03T15:20:25;8.30;99.90
19755;DHT22;10036;47.812;9.274;2023-03-03T15:23:06;8.50;99.90
19755;DHT22;10036;47.812;9.274;2023-03-03T15:25:43;8.80;99.90
19755;DHT22;10036;47.812;9.274;2023-03-03T15:28:21;8.90;99.90
19755;DHT22;10036;47.812;9.274;2023-03-03T15:30:54;9.00;99.90
19755;DHT22;10036;47.812;9.274;2023-03-03T15:33:31;9.00;99.90
19755;DHT22;10036;47.812;9.274;2023-03-03T15:36:05;9.20;99.90
19755;DHT22;10036;47.812;9.274;2023-03-03T15:38:43;9.20;99.90
19755;DHT22;10036;47.812;9.274;2023-03-03T15:41:19;9.20;99.90
19755;DHT22;10036;47.812;9.274;2023-03-03T15:43:59;9.30;99.90
19755;DHT22;10036;47.812;9.274;2023-03-03T15:46:39;9.20;99.90
19755;DHT22;10036;47.812;9.274;2023-03-03T15:49:19;9.30;99.90
19755;DHT22;10036;47.812;9.274;2023-03-03T15:52:06;9.30;99.90
19755;DHT22;10036;47.812;9.274;2023-03-03T15:54:52;9.40;99.90
19755;DHT22;10036;47.812;9.274;2023-03-03T15:57:35;9.40;99.90
19755;DHT22;10036;47.812;9.274;2023-03-03T16:00:36;9.20;99.90
19755;DHT22;10036;47.812;9.274;2023-03-03T16:03:11;9.30;99.90
19755;DHT22;10036;47.812;9.274;2023-03-03T16:05:48;9.20;99.90
19755;DHT22;10036;47.812;9.274;2023-03-03T16:08:21;9.00;99.90
19755;DHT22;10036;47.812;9.274;2023-03-03T16:10:58;8.90;99.90
19755;DHT22;10036;47.812;9.274;2023-03-03T16:13:41;8.70;99.90
19755;DHT22;10036;47.812;9.274;2023-03-03T16:16:19;8.50;99.90
19755;DHT22;10036;47.812;9.274;2023-03-03T16:18:58;8.40;99.90
19755;DHT22;10036;47.812;9.274;2023-03-03T16:21:43;8.40;99.90
19755;DHT22;10036;47.812;9.274;2023-03-03T16:24:20;8.20;99.90
19755;DHT22;10036;47.812;9.274;2023-03-03T16:26:55;8.10;99.90
19755;DHT22;10036;47.812;9.274;2023-03-03T16:29:38;8.00;99.90
19755;DHT22;10036;47.812;9.274;2023-03-03T16:32:12;7.80;99.90